This is the latest recevied weather packets stored in our database for station/object HS2XQB-3. If no packets are shown the sender has not sent any weather packets the latest 10 day(s).
| Time | Temp. | Humidity | Pressure | Rain* | Wind** | Luminosity | Snow |
|---|---|---|---|---|---|---|---|
| 1777509211 | 24.44° C | 67% | 1006 hPa | - | - | 0 W/m² | - |
| 1777507385 | 23.89° C | 72% | 1006 hPa | - | - | 0 W/m² | - |
| 1777505562 | 23.89° C | 78% | 1006 hPa | - | - | 0 W/m² | - |
| 1777503740 | 24.44° C | 82% | 1005 hPa | - | - | 0 W/m² | - |
| 1777501918 | 23.33° C | 72% | 1005 hPa | - | - | 0 W/m² | - |
| 1777500096 | 23.89° C | 80% | 1005 hPa | - | - | 0 W/m² | - |
| 1777498273 | 23.89° C | 75% | 1004 hPa | - | - | 0 W/m² | - |
| 1777496451 | 23.33° C | 73% | 1004 hPa | - | - | 0 W/m² | - |
| 1777494629 | 23.89° C | 77% | 1003 hPa | - | - | 0 W/m² | - |
| 1777492807 | 24.44° C | 77% | 1003 hPa | - | - | 0 W/m² | - |
| 1777490957 | 23.89° C | 72% | 1004 hPa | - | - | 0 W/m² | - |
| 1777489135 | 23.33° C | 69% | 1004 hPa | - | - | 0 W/m² | - |
| 1777487313 | 23.89° C | 73% | 1005 hPa | - | - | 0 W/m² | - |
| 1777485491 | 24.44° C | 76% | 1005 hPa | - | - | 0 W/m² | - |
| 1777483669 | 24.44° C | 76% | 1005 hPa | - | - | 0 W/m² | - |
| 1777481847 | 24.44° C | 74% | 1006 hPa | - | - | 0 W/m² | - |
| 1777480025 | 24.44° C | 70% | 1006 hPa | - | - | 0 W/m² | - |
| 1777478203 | 23.33° C | 64% | 1005 hPa | - | - | 0 W/m² | - |
| 1777476381 | 23.89° C | 68% | 1005 hPa | - | - | 0 W/m² | - |
| 1777474559 | 24.44° C | 71% | 1005 hPa | - | - | 0 W/m² | - |
| 1777472737 | 24.44° C | 69% | 1005 hPa | - | - | 0 W/m² | - |
| 1777470915 | 23.89° C | 65% | 1004 hPa | - | - | 0 W/m² | - |
| 1777469093 | 23.89° C | 63% | 1004 hPa | - | - | 0 W/m² | - |
| 1777467271 | 24.44° C | 64% | 1004 hPa | - | - | 0 W/m² | - |
| 1777465449 | 23.89° C | 63% | 1003 hPa | - | - | 0 W/m² | - |
* Rain since midnight (hover to see other rain measurements)
** Current wind speed in m/s (hover to see current wind gust speed)